KCTB

Cut Bank International Airport

Cut Bank, Montana, USA
METAR KCTB 140456Z AUTO 27011G28KT 10SM CLR 07/M09 A3013 RMK AO2 PK WND 26028/0447 SLP214 T00671089
Observed Flight Rules
Nov-14 @ 04:56 UTC (27 minutes ago) Visual Flight Rules
Wind Visibility Clouds
270° at 11 knots
 Gusting to 28 knots
10 miles
  • Clear skies
Temperatures Readings
Current 7°C / 45°F
Dewpoint -9°C / 16°F
Humidity 31%
Altimeter 30.13" Hg
Pressure 1021.4 hPa
Elevation 1175
METAR KCTB 140456Z AUTO 27011G28KT 10SM CLR 07/M09 A3013 RMK AO2 PK WND 26028/0447 SLP214 T00671089
Observed Flight Rules
Nov-14 @ 04:56 UTC
(27 minutes ago)
VFR
Wind Visibility
270° at 11 knots
 Gusting to 28 knots
10 miles
Clouds
  • Clear skies
Temperature Dewpoint
7°C / 45°F -9°C / 16°F
Humidity Altimeter Pressure
31% 30.13" Hg 1021.4 hPa